Time;durP1;ratioP1;P1;durP2;ratioP2;P2;SDS_P1;SDS_P2;PMS_P1;PMS_P2;Temp;Humidity;BMP_temperature;BMP_pressure;BME280_temperature;BME280_humidity;BME280_pressure;Samples;Min_cycle;Max_cycle;Signal;HPM_P1;HPM_P2
2023/12/18 00:02:07;;;;;;;212.85;126.28;;;;;;;11.30;nan;99455.06;5040573;28;20057;-69
2023/12/18 00:04:36;;;;;;;209.20;125.13;;;;;;;11.34;nan;99457.19;5046390;28;20479;-70
2023/12/18 00:07:06;;;;;;;219.57;126.65;;;;;;;11.38;nan;99457.66;5045666;28;20134;-69
2023/12/18 00:09:35;;;;;;;221.02;130.73;;;;;;;11.21;nan;99457.78;5045652;28;20115;-70
2023/12/18 00:12:05;;;;;;;216.38;130.88;;;;;;;11.21;nan;99465.75;5045672;28;20057;-69
2023/12/18 00:14:36;;;;;;;215.13;129.52;;;;;;;11.43;nan;99466.72;5046954;28;20060;-69
2023/12/18 00:17:05;;;;;;;228.13;138.98;;;;;;;11.34;nan;99462.50;5045872;28;20049;-69
2023/12/18 00:19:35;;;;;;;217.95;131.52;;;;;;;11.24;nan;99467.25;5046032;28;20503;-69
2023/12/18 00:22:04;;;;;;;235.38;135.05;;;;;;;11.50;nan;99466.84;5032883;28;20147;-69
2023/12/18 00:24:34;;;;;;;231.48;136.88;;;;;;;11.62;nan;99470.72;5042374;28;20221;-69
2023/12/18 00:27:04;;;;;;;240.45;140.13;;;;;;;11.67;nan;99466.53;5044262;28;20044;-69
2023/12/18 00:29:33;;;;;;;259.10;144.27;;;;;;;11.68;nan;99462.84;5037225;28;20049;-71
2023/12/18 00:32:03;;;;;;;241.85;141.07;;;;;;;11.68;nan;99475.31;5036613;28;20041;-69
2023/12/18 00:34:32;;;;;;;237.05;141.00;;;;;;;11.59;nan;99468.44;5042332;28;20510;-70
2023/12/18 00:37:02;;;;;;;231.07;136.88;;;;;;;11.67;nan;99469.16;5045900;28;20059;-69
2023/12/18 00:39:31;;;;;;;233.25;136.55;;;;;;;11.59;nan;99468.44;5046597;28;20045;-70
2023/12/18 00:42:01;;;;;;;241.32;135.80;;;;;;;11.63;nan;99475.84;5045090;28;20110;-70
2023/12/18 00:44:31;;;;;;;236.55;137.68;;;;;;;11.64;nan;99468.69;5046053;28;20107;-71
2023/12/18 00:47:02;;;;;;;236.80;136.65;;;;;;;11.56;nan;99466.94;5045322;28;20056;-71
2023/12/18 00:49:32;;;;;;;238.07;137.85;;;;;;;11.55;nan;99475.09;5045413;28;20052;-70
2023/12/18 00:52:02;;;;;;;242.35;139.77;;;;;;;11.58;nan;99475.56;5040044;28;20040;-68
2023/12/18 00:54:31;;;;;;;234.30;138.30;;;;;;;11.55;nan;99472.44;5042934;28;20059;-70
2023/12/18 00:57:00;;;;;;;242.45;142.13;;;;;;;11.61;nan;99483.16;5060490;28;20055;-70
2023/12/18 00:59:30;;;;;;;250.82;143.63;;;;;;;11.58;nan;99486.16;5044552;28;20041;-70
2023/12/18 01:01:59;;;;;;;221.70;133.45;;;;;;;11.37;nan;99486.03;5037281;28;20758;-70
2023/12/18 01:04:29;;;;;;;233.60;138.20;;;;;;;11.31;nan;99486.72;5041186;28;20132;-69
2023/12/18 01:06:59;;;;;;;235.30;135.63;;;;;;;11.18;nan;99484.66;5043433;28;20443;-70
2023/12/18 01:09:28;;;;;;;249.70;140.70;;;;;;;11.24;nan;99489.25;5060212;28;20044;-70
2023/12/18 01:11:59;;;;;;;237.45;138.25;;;;;;;11.08;nan;99486.72;5045197;28;20045;-69
2023/12/18 01:14:28;;;;;;;240.43;140.20;;;;;;;11.19;nan;99490.81;5041762;28;20079;-70
2023/12/18 01:16:58;;;;;;;242.70;137.82;;;;;;;10.95;nan;99489.13;5045485;28;20041;-70
2023/12/18 01:19:27;;;;;;;238.38;137.00;;;;;;;11.08;nan;99501.81;5036851;28;20050;-70
2023/12/18 01:21:57;;;;;;;233.07;135.93;;;;;;;10.92;nan;99494.78;5045505;28;20059;-70
2023/12/18 01:24:28;;;;;;;240.93;139.07;;;;;;;10.77;nan;99497.34;5044209;28;20464;-71
2023/12/18 01:26:57;;;;;;;229.57;133.45;;;;;;;10.56;nan;99509.56;5045202;28;20155;-70
2023/12/18 01:29:27;;;;;;;236.52;138.52;;;;;;;10.46;nan;99506.28;5044407;28;20130;-70
2023/12/18 01:31:57;;;;;;;230.52;136.63;;;;;;;10.70;nan;99514.97;5044265;28;20049;-70
2023/12/18 01:34:26;;;;;;;224.55;133.73;;;;;;;10.71;nan;99510.50;5030865;28;20045;-70
2023/12/18 01:36:56;;;;;;;230.60;133.20;;;;;;;10.73;nan;99517.25;5044003;28;20052;-70
2023/12/18 01:39:26;;;;;;;224.60;131.82;;;;;;;10.50;nan;99518.19;5042293;28;20436;-70
2023/12/18 01:41:55;;;;;;;222.88;127.85;;;;;;;10.31;nan;99524.72;5043890;28;20199;-70
2023/12/18 01:44:25;;;;;;;217.45;130.70;;;;;;;10.20;nan;99540.94;5042181;28;20049;-70
2023/12/18 01:46:56;;;;;;;216.48;129.27;;;;;;;10.12;nan;99540.94;5044696;28;20064;-73
2023/12/18 01:49:25;;;;;;;228.23;130.38;;;;;;;10.10;nan;99538.47;5040843;28;20088;-70
2023/12/18 01:51:55;;;;;;;214.60;130.35;;;;;;;10.30;nan;99541.59;5051207;28;20127;-70
2023/12/18 01:54:25;;;;;;;219.05;129.88;;;;;;;10.21;nan;99542.63;5033366;28;20130;-70
2023/12/18 01:56:56;;;;;;;220.27;129.98;;;;;;;10.44;nan;99540.06;5036617;28;20151;-70
2023/12/18 01:59:26;;;;;;;227.60;129.80;;;;;;;10.49;nan;99551.78;5035101;28;20045;-70
2023/12/18 02:01:56;;;;;;;245.18;134.68;;;;;;;10.24;nan;99548.38;5037913;28;20045;-70
2023/12/18 02:04:26;;;;;;;251.65;137.40;;;;;;;10.15;nan;99553.84;5030178;28;20357;-70
2023/12/18 02:07:00;;;;;;;267.00;139.75;;;;;;;10.08;nan;99550.22;5036460;28;20060;-71
2023/12/18 02:09:30;;;;;;;264.30;139.85;;;;;;;10.01;nan;99554.50;5034181;28;20065;-70
2023/12/18 02:12:00;;;;;;;268.98;139.38;;;;;;;10.05;nan;99540.78;5035730;28;20359;-70
2023/12/18 02:14:29;;;;;;;287.45;140.52;;;;;;;10.03;nan;99542.78;5033120;28;21379;-70
2023/12/18 02:16:59;;;;;;;297.50;146.95;;;;;;;10.06;nan;99545.09;5038732;28;20061;-70
2023/12/18 02:19:29;;;;;;;308.35;146.23;;;;;;;10.20;nan;99543.59;5037450;28;20045;-70
2023/12/18 02:21:59;;;;;;;318.48;154.80;;;;;;;10.26;nan;99540.28;5039937;28;20143;-70
2023/12/18 02:24:29;;;;;;;318.17;150.32;;;;;;;10.18;nan;99540.28;5041738;28;20052;-70
2023/12/18 02:26:59;;;;;;;310.08;149.70;;;;;;;10.32;nan;99553.66;5052472;28;20057;-70
2023/12/18 02:29:28;;;;;;;324.08;150.30;;;;;;;10.23;nan;99556.50;5040727;28;20041;-69
2023/12/18 02:31:58;;;;;;;301.08;145.05;;;;;;;10.19;nan;99555.19;5042625;28;20509;-70
2023/12/18 02:34:27;;;;;;;318.65;145.60;;;;;;;10.08;nan;99561.63;5039908;28;20068;-70
2023/12/18 02:36:57;;;;;;;305.48;143.88;;;;;;;10.28;nan;99560.28;5037788;28;20045;-70
2023/12/18 02:39:26;;;;;;;325.75;144.18;;;;;;;10.13;nan;99566.44;5039746;28;20069;-70
2023/12/18 02:41:55;;;;;;;292.10;140.88;;;;;;;10.09;nan;99563.25;5042010;28;20049;-70
2023/12/18 02:44:25;;;;;;;292.80;136.32;;;;;;;10.03;nan;99563.13;5058195;28;20036;-69
2023/12/18 02:46:54;;;;;;;314.77;138.85;;;;;;;9.92;nan;99570.41;5028635;28;20753;-69
2023/12/18 02:49:24;;;;;;;288.02;132.55;;;;;;;10.02;nan;99572.06;5037454;28;20061;-69
2023/12/18 02:51:53;;;;;;;296.08;138.20;;;;;;;9.98;nan;99568.09;5038834;28;20452;-71
2023/12/18 02:54:23;;;;;;;353.55;138.82;;;;;;;9.81;nan;99568.13;5036259;28;20041;-68
2023/12/18 02:56:52;;;;;;;293.17;137.07;;;;;;;10.05;nan;99569.88;5039276;28;20049;-71
2023/12/18 02:59:22;;;;;;;305.95;140.80;;;;;;;10.21;nan;99571.72;5039126;28;20056;-70
2023/12/18 03:01:51;;;;;;;280.77;138.50;;;;;;;10.14;nan;99573.34;5039573;28;20088;-69
2023/12/18 03:04:21;;;;;;;282.30;136.35;;;;;;;10.23;nan;99567.91;5035651;28;20041;-68
2023/12/18 03:06:51;;;;;;;283.95;141.32;;;;;;;10.19;nan;99566.59;5038537;28;20513;-69
2023/12/18 03:09:20;;;;;;;280.27;135.13;;;;;;;10.23;nan;99573.19;5038283;28;20081;-71
2023/12/18 03:11:50;;;;;;;276.75;135.52;;;;;;;10.28;nan;99578.81;5045527;28;20500;-68
2023/12/18 03:14:19;;;;;;;263.17;133.43;;;;;;;10.36;nan;99585.91;5046184;28;20396;-71
2023/12/18 03:16:49;;;;;;;260.13;128.15;;;;;;;10.38;nan;99586.56;5047346;28;20049;-69
2023/12/18 03:19:19;;;;;;;244.48;126.82;;;;;;;10.50;nan;99579.09;5044254;28;20123;-70
2023/12/18 03:21:49;;;;;;;254.60;125.47;;;;;;;10.61;nan;99584.88;5060625;28;20064;-70
2023/12/18 03:24:18;;;;;;;259.33;127.25;;;;;;;10.53;nan;99587.53;5046881;28;20060;-69
2023/12/18 03:26:50;;;;;;;255.60;126.90;;;;;;;10.61;nan;99589.34;5033452;28;20041;-69
2023/12/18 03:29:20;;;;;;;253.80;123.18;;;;;;;10.82;nan;99587.75;5032045;28;20048;-71
2023/12/18 03:31:50;;;;;;;258.00;126.75;;;;;;;10.93;nan;99586.53;5044931;28;20049;-69
2023/12/18 03:34:19;;;;;;;245.70;124.35;;;;;;;11.20;nan;99598.47;5026396;28;20832;-69
2023/12/18 03:36:49;;;;;;;249.65;126.80;;;;;;;11.63;nan;99602.38;5057172;28;20056;-70
2023/12/18 03:39:18;;;;;;;243.25;121.03;;;;;;;11.95;nan;99610.09;5045402;28;20059;-69
2023/12/18 03:41:48;;;;;;;239.15;119.93;;;;;;;12.11;nan;99617.09;5047017;28;20068;-69
2023/12/18 03:44:17;;;;;;;241.80;120.50;;;;;;;12.61;nan;99614.59;5046426;28;20142;-70
2023/12/18 03:46:47;;;;;;;209.40;110.43;;;;;;;13.08;nan;99616.03;5037304;28;20045;-70
2023/12/18 03:49:16;;;;;;;209.02;113.47;;;;;;;13.28;nan;99622.44;5042755;28;20045;-70
2023/12/18 03:51:46;;;;;;;189.88;102.28;;;;;;;13.48;nan;99630.66;5039351;28;20052;-71
2023/12/18 03:54:16;;;;;;;184.23;98.68;;;;;;;13.78;nan;99631.34;5046815;28;20064;-70
2023/12/18 03:56:45;;;;;;;174.63;93.88;;;;;;;14.43;nan;99640.97;5045952;28;20053;-70
2023/12/18 03:59:15;;;;;;;171.60;93.22;;;;;;;14.90;nan;99643.72;5041976;28;20041;-71
2023/12/18 04:01:44;;;;;;;156.73;92.13;;;;;;;15.31;nan;99653.56;5036085;28;20427;-71
2023/12/18 04:04:14;;;;;;;155.25;86.68;;;;;;;15.65;nan;99659.66;5034912;28;20133;-71
2023/12/18 04:06:44;;;;;;;157.82;89.45;;;;;;;16.03;nan;99669.78;5045252;28;20132;-71
2023/12/18 04:09:14;;;;;;;147.73;87.75;;;;;;;16.06;nan;99667.56;5046568;28;20056;-70
2023/12/18 04:11:43;;;;;;;162.18;89.10;;;;;;;16.40;nan;99673.72;5046437;28;20057;-70
2023/12/18 04:14:13;;;;;;;145.60;87.05;;;;;;;16.61;nan;99673.53;5038577;28;20566;-70
2023/12/18 04:16:42;;;;;;;149.82;88.32;;;;;;;17.00;nan;99662.75;5046762;28;20468;-71
2023/12/18 04:19:11;;;;;;;139.00;85.00;;;;;;;17.33;nan;99667.19;5061172;28;20132;-71
2023/12/18 04:21:41;;;;;;;135.77;86.53;;;;;;;17.74;nan;99675.69;5045370;28;20044;-72
2023/12/18 04:24:11;;;;;;;128.20;81.35;;;;;;;17.58;nan;99675.28;5044003;28;20076;-70
2023/12/18 04:26:41;;;;;;;133.15;80.97;;;;;;;18.29;nan;99670.53;5045849;28;20063;-71
2023/12/18 04:29:10;;;;;;;120.32;79.40;;;;;;;18.26;nan;99673.66;5036338;28;20105;-71
2023/12/18 04:31:40;;;;;;;122.80;78.78;;;;;;;18.22;nan;99680.50;5030642;28;20516;-72
2023/12/18 04:34:11;;;;;;;115.00;74.40;;;;;;;17.77;nan;99688.63;5028409;28;20033;-71
2023/12/18 04:36:41;;;;;;;113.25;74.50;;;;;;;17.74;nan;99683.72;5045363;28;20053;-72
2023/12/18 04:39:11;;;;;;;118.38;76.50;;;;;;;17.87;nan;99688.16;5044861;28;20044;-75
2023/12/18 04:41:41;;;;;;;117.07;77.20;;;;;;;17.91;nan;99689.38;5044810;28;20045;-75
2023/12/18 04:44:10;;;;;;;112.47;76.57;;;;;;;18.05;nan;99690.94;5019410;28;20087;-75
2023/12/18 04:46:41;;;;;;;119.72;78.05;;;;;;;17.81;nan;99687.16;5045489;28;20106;-75
2023/12/18 04:49:12;;;;;;;120.00;77.20;;;;;;;17.49;nan;99682.75;5038708;28;20543;-75
2023/12/18 04:51:42;;;;;;;114.47;74.38;;;;;;;17.22;nan;99683.88;5035788;28;20790;-76
2023/12/18 04:54:13;;;;;;;111.35;77.10;;;;;;;17.15;nan;99678.56;5008097;28;20049;-75
2023/12/18 04:56:42;;;;;;;117.10;79.35;;;;;;;16.99;nan;99685.19;5043924;28;20049;-75
2023/12/18 04:59:13;;;;;;;117.10;77.45;;;;;;;16.97;nan;99681.09;5043950;28;20044;-75
2023/12/18 05:01:43;;;;;;;118.45;76.18;;;;;;;17.03;nan;99682.94;5042217;28;20114;-75
2023/12/18 05:04:12;;;;;;;122.47;77.30;;;;;;;17.42;nan;99669.41;5041942;28;20045;-76
2023/12/18 05:06:42;;;;;;;114.03;75.85;;;;;;;17.46;nan;99665.28;5045282;28;20114;-75
2023/12/18 05:09:12;;;;;;;122.15;81.63;;;;;;;17.42;nan;99668.59;5036328;28;20053;-75
2023/12/18 05:11:41;;;;;;;113.88;74.32;;;;;;;17.29;nan;99669.47;5040025;28;20127;-76
2023/12/18 05:14:11;;;;;;;120.38;74.45;;;;;;;17.21;nan;99674.25;5027973;28;20033;-75
2023/12/18 05:16:41;;;;;;;112.55;75.20;;;;;;;17.27;nan;99660.81;5040622;28;20059;-75
2023/12/18 05:19:10;;;;;;;118.40;75.85;;;;;;;17.34;nan;99655.44;5041115;28;20048;-75
2023/12/18 05:21:40;;;;;;;117.43;75.47;;;;;;;17.59;nan;99652.88;5039540;28;20049;-75
2023/12/18 05:24:10;;;;;;;108.05;72.80;;;;;;;17.79;nan;99654.38;5029171;28;20052;-75
2023/12/18 05:26:39;;;;;;;114.53;71.80;;;;;;;17.82;nan;99642.44;5016797;28;20366;-76
2023/12/18 05:29:08;;;;;;;116.68;71.18;;;;;;;17.61;nan;99646.28;5057168;28;20140;-77
2023/12/18 05:31:38;;;;;;;98.75;63.38;;;;;;;17.60;nan;99650.00;5038093;28;20144;-77
2023/12/18 05:34:08;;;;;;;97.43;63.08;;;;;;;18.04;nan;99640.22;5037368;28;20041;-77
2023/12/18 05:36:37;;;;;;;107.85;66.15;;;;;;;18.16;nan;99633.09;5019696;28;20056;-75
2023/12/18 05:39:07;;;;;;;104.32;63.92;;;;;;;17.92;nan;99635.53;5036494;28;20041;-70
2023/12/18 05:41:37;;;;;;;95.10;62.42;;;;;;;17.83;nan;99633.38;5053439;28;20481;-71
2023/12/18 05:44:06;;;;;;;102.20;63.15;;;;;;;17.98;nan;99633.84;5033908;28;20095;-72
2023/12/18 05:46:36;;;;;;;98.55;59.40;;;;;;;18.23;nan;99623.97;5034257;28;20769;-74
2023/12/18 05:49:05;;;;;;;94.93;58.17;;;;;;;18.21;nan;99623.38;5034887;28;20049;-73
2023/12/18 05:51:35;;;;;;;94.63;62.15;;;;;;;18.34;nan;99625.13;5033054;28;20049;-73
2023/12/18 05:54:04;;;;;;;94.13;59.80;;;;;;;18.59;nan;99625.09;5035597;28;20045;-73
2023/12/18 05:56:34;;;;;;;87.05;59.63;;;;;;;18.65;nan;99625.06;5036615;28;20140;-72
2023/12/18 05:59:03;;;;;;;91.35;59.75;;;;;;;18.70;nan;99616.34;5032131;28;20052;-75
2023/12/18 06:01:33;;;;;;;90.88;58.67;;;;;;;18.84;nan;99618.66;5008090;28;20053;-74
2023/12/18 06:04:02;;;;;;;85.22;55.47;;;;;;;18.72;nan;99616.94;5015280;28;20371;-73
2023/12/18 06:06:32;;;;;;;82.70;52.85;;;;;;;18.98;nan;99623.88;5024816;28;20044;-72
2023/12/18 06:09:02;;;;;;;78.60;51.97;;;;;;;19.09;nan;99615.06;5030932;28;20442;-66
2023/12/18 06:11:35;;;;;;;82.05;51.97;;;;;;;19.25;nan;99609.09;5019521;28;20064;-63
2023/12/18 06:14:04;;;;;;;88.35;54.75;;;;;;;19.37;nan;99604.59;5028312;28;20162;-63
2023/12/18 06:16:34;;;;;;;75.68;50.17;;;;;;;19.35;nan;99605.84;5023701;28;20131;-64
2023/12/18 06:19:03;;;;;;;81.20;48.85;;;;;;;19.24;nan;99600.22;5022712;28;20068;-64
2023/12/18 06:21:41;;;;;;;73.53;47.35;;;;;;;19.34;nan;99598.88;5022091;28;20045;-63
2023/12/18 06:24:11;;;;;;;67.95;45.38;;;;;;;19.35;nan;99605.84;5020289;28;20081;-64
2023/12/18 06:26:40;;;;;;;68.97;47.22;;;;;;;19.53;nan;99603.16;5024553;28;20048;-77
2023/12/18 06:29:10;;;;;;;67.40;47.55;;;;;;;19.62;nan;99599.91;5024810;28;20048;-77
2023/12/18 06:31:39;;;;;;;78.57;49.20;;;;;;;19.77;nan;99604.06;5020271;28;20061;-78
2023/12/18 06:34:10;;;;;;;65.43;45.30;;;;;;;19.66;nan;99598.41;5018113;28;20077;-78
2023/12/18 06:36:40;;;;;;;63.30;42.38;;;;;;;19.46;nan;99594.38;5020087;28;20052;-79
2023/12/18 06:39:11;;;;;;;62.42;41.92;;;;;;;19.44;nan;99583.84;5022615;28;20053;-78
2023/12/18 06:41:40;;;;;;;60.88;42.03;;;;;;;19.48;nan;99582.34;5026864;28;20532;-80
2023/12/18 06:44:10;;;;;;;65.28;41.80;;;;;;;19.52;nan;99578.16;5019630;28;20038;-77
2023/12/18 06:46:39;;;;;;;66.57;43.22;;;;;;;19.79;nan;99562.44;5017082;28;20061;-78
2023/12/18 06:49:08;;;;;;;69.65;43.22;;;;;;;19.74;nan;99565.81;5025372;28;20057;-78
2023/12/18 06:51:38;;;;;;;78.15;46.38;;;;;;;19.86;nan;99560.50;5031749;28;20057;-79
2023/12/18 06:54:08;;;;;;;71.35;45.15;;;;;;;20.01;nan;99554.66;5031105;28;20049;-78
2023/12/18 06:56:37;;;;;;;65.97;44.72;;;;;;;20.16;nan;99560.41;5029531;28;20061;-78
2023/12/18 06:59:07;;;;;;;72.10;46.53;;;;;;;19.99;nan;99557.59;5020886;28;20043;-77
2023/12/18 07:01:37;;;;;;;71.97;45.67;;;;;;;19.91;nan;99559.78;5022903;28;20049;-77
2023/12/18 07:04:06;;;;;;;64.47;45.70;;;;;;;20.00;nan;99555.72;5023080;28;20055;-78
2023/12/18 07:06:36;;;;;;;71.70;47.20;;;;;;;20.01;nan;99551.94;5025710;28;20629;-77
2023/12/18 07:09:05;;;;;;;76.55;47.30;;;;;;;19.99;nan;99540.63;5024623;28;20443;-74
2023/12/18 07:11:35;;;;;;;69.90;50.00;;;;;;;19.82;nan;99545.06;5021904;28;20045;-77
2023/12/18 07:14:05;;;;;;;72.40;51.38;;;;;;;20.17;nan;99532.44;5026161;28;20452;-77
2023/12/18 07:16:35;;;;;;;72.20;48.38;;;;;;;19.87;nan;99529.84;5028690;28;20079;-75
2023/12/18 07:19:05;;;;;;;84.55;49.78;;;;;;;19.93;nan;99518.16;5032374;28;20041;-78
2023/12/18 07:21:35;;;;;;;78.03;50.10;;;;;;;19.99;nan;99516.44;5044951;28;20042;-75
2023/12/18 07:24:05;;;;;;;77.07;49.30;;;;;;;20.10;nan;99511.03;5037384;28;20441;-77
2023/12/18 07:26:34;;;;;;;74.00;48.83;;;;;;;20.13;nan;99509.78;5030246;28;20045;-77
2023/12/18 07:29:03;;;;;;;79.15;47.90;;;;;;;20.12;nan;99500.88;5034227;28;20123;-74
2023/12/18 07:31:33;;;;;;;74.75;48.95;;;;;;;20.17;nan;99497.47;5027787;28;20770;-75
2023/12/18 07:34:02;;;;;;;71.43;48.33;;;;;;;20.15;nan;99492.31;5046252;28;20041;-75
2023/12/18 07:36:35;;;;;;;77.88;48.78;;;;;;;20.00;nan;99483.91;5034442;28;20432;-74
2023/12/18 07:39:05;;;;;;;80.15;50.17;;;;;;;20.01;nan;99479.34;5031972;28;20042;-79
2023/12/18 07:41:34;;;;;;;74.63;48.90;;;;;;;20.00;nan;99477.72;5027638;28;20062;-76
2023/12/18 07:44:04;;;;;;;80.20;49.40;;;;;;;20.08;nan;99474.69;5024533;28;20623;-72
2023/12/18 07:46:34;;;;;;;70.38;47.08;;;;;;;20.05;nan;99472.44;5037911;28;20110;-75
2023/12/18 07:49:03;;;;;;;78.78;49.70;;;;;;;20.03;nan;99470.00;5034876;28;20064;-76
2023/12/18 07:51:34;;;;;;;76.88;51.22;;;;;;;20.06;nan;99458.78;5032915;28;20045;-76
2023/12/18 07:54:04;;;;;;;84.05;52.78;;;;;;;20.09;nan;99454.81;5026195;28;20053;-77
2023/12/18 07:56:33;;;;;;;71.82;49.63;;;;;;;20.25;nan;99451.38;5027736;28;20071;-77
2023/12/18 07:59:03;;;;;;;89.22;52.95;;;;;;;20.29;nan;99446.34;5025940;28;20045;-77
2023/12/18 08:01:32;;;;;;;75.95;53.00;;;;;;;20.24;nan;99433.59;5025699;28;20045;-77
2023/12/18 08:04:02;;;;;;;83.78;55.25;;;;;;;20.38;nan;99440.41;5041382;28;20049;-76
2023/12/18 08:06:31;;;;;;;77.72;53.42;;;;;;;20.32;nan;99432.44;5027280;28;20415;-78
2023/12/18 08:09:01;;;;;;;84.18;55.67;;;;;;;20.31;nan;99428.13;5027158;28;20037;-78
2023/12/18 08:11:30;;;;;;;88.18;56.15;;;;;;;20.20;nan;99419.00;5025674;28;20053;-77
2023/12/18 08:14:00;;;;;;;90.28;56.97;;;;;;;20.25;nan;99416.41;5026466;28;20496;-78
2023/12/18 08:16:30;;;;;;;85.03;56.70;;;;;;;20.27;nan;99411.59;5023362;28;20128;-77
2023/12/18 08:19:00;;;;;;;90.32;54.78;;;;;;;20.40;nan;99408.66;5025377;28;20067;-77
2023/12/18 08:21:30;;;;;;;87.47;57.10;;;;;;;20.29;nan;99392.53;5026305;28;20139;-77
2023/12/18 08:23:59;;;;;;;82.72;54.10;;;;;;;20.39;nan;99398.16;5009550;28;20141;-78
2023/12/18 08:26:29;;;;;;;90.70;53.50;;;;;;;20.43;nan;99394.75;5024060;28;20049;-78
2023/12/18 08:28:59;;;;;;;87.38;52.75;;;;;;;20.37;nan;99384.94;5025610;28;20049;-76
2023/12/18 08:31:28;;;;;;;91.25;53.67;;;;;;;20.36;nan;99393.25;5019425;28;20137;-78
2023/12/18 08:33:58;;;;;;;85.93;53.80;;;;;;;20.28;nan;99386.34;5025779;28;20053;-78
2023/12/18 08:36:30;;;;;;;94.25;53.72;;;;;;;20.23;nan;99390.78;5025915;28;20172;-78
2023/12/18 08:38:59;;;;;;;90.78;54.85;;;;;;;20.31;nan;99391.28;5035896;28;20927;-78
2023/12/18 08:41:29;;;;;;;96.68;53.03;;;;;;;20.40;nan;99384.47;5026239;28;20128;-78
2023/12/18 08:43:59;;;;;;;91.72;56.88;;;;;;;20.25;nan;99378.75;5022137;28;20364;-76
2023/12/18 08:46:32;;;;;;;90.95;57.47;;;;;;;20.29;nan;99382.59;5025311;28;20076;-72
2023/12/18 08:49:02;;;;;;;83.05;52.50;;;;;;;20.21;nan;99372.22;5024094;28;20420;-73
2023/12/18 08:51:31;;;;;;;90.90;53.53;;;;;;;20.21;nan;99372.22;5025502;28;20142;-76
2023/12/18 08:54:04;;;;;;;79.50;51.80;;;;;;;20.16;nan;99366.75;5027375;28;20465;-73
2023/12/18 08:56:34;;;;;;;85.50;53.58;;;;;;;20.07;nan;99366.28;5017667;28;20060;-76
2023/12/18 08:59:04;;;;;;;89.25;51.38;;;;;;;20.09;nan;99363.38;5025360;28;20045;-72
2023/12/18 09:01:40;;;;;;;75.20;50.80;;;;;;;20.10;nan;99371.19;5024722;28;20075;-75
2023/12/18 09:04:10;;;;;;;85.07;50.95;;;;;;;20.20;nan;99367.88;5037498;28;20111;-73
2023/12/18 09:06:39;;;;;;;72.40;47.28;;;;;;;20.12;nan;99361.03;5024509;28;20132;-77
2023/12/18 09:09:09;;;;;;;70.70;48.00;;;;;;;20.13;nan;99359.97;5024859;28;20050;-77
2023/12/18 09:11:39;;;;;;;80.35;47.35;;;;;;;20.14;nan;99360.75;5025301;28;20053;-76
2023/12/18 09:14:08;;;;;;;71.72;45.35;;;;;;;20.12;nan;99357.50;5013507;28;20041;-75
2023/12/18 09:16:39;;;;;;;67.05;46.17;;;;;;;20.17;nan;99355.75;5033861;28;20132;-75
2023/12/18 09:19:08;;;;;;;65.75;41.95;;;;;;;20.22;nan;99351.53;5024635;28;20720;-74
2023/12/18 09:21:38;;;;;;;59.10;40.05;;;;;;;20.19;nan;99347.41;5023670;28;20365;-74
2023/12/18 09:24:07;;;;;;;61.17;41.65;;;;;;;20.13;nan;99351.09;5038988;28;20054;-74
2023/12/18 09:26:37;;;;;;;64.43;38.88;;;;;;;20.18;nan;99351.16;5024965;28;20500;-75
2023/12/18 09:29:07;;;;;;;58.10;38.72;;;;;;;20.24;nan;99342.16;5024148;28;20049;-74
2023/12/18 09:31:36;;;;;;;65.55;39.28;;;;;;;20.31;nan;99344.75;5024928;28;20077;-75
2023/12/18 09:34:06;;;;;;;61.78;37.60;;;;;;;20.21;nan;99339.94;5023365;28;20462;-75
2023/12/18 09:36:36;;;;;;;60.97;37.70;;;;;;;20.13;nan;99330.38;5019999;28;20049;-76
2023/12/18 09:39:06;;;;;;;55.63;37.33;;;;;;;20.23;nan;99335.13;5022407;28;20049;-76
2023/12/18 09:41:36;;;;;;;55.85;35.58;;;;;;;20.21;nan;99336.44;5022134;28;20053;-76
2023/12/18 09:44:05;;;;;;;55.17;34.63;;;;;;;20.25;nan;99337.59;5023251;28;20045;-74
2023/12/18 09:46:35;;;;;;;54.05;33.72;;;;;;;20.24;nan;99334.06;5024663;28;20786;-74
2023/12/18 09:49:04;;;;;;;52.78;32.78;;;;;;;20.24;nan;99322.50;5031774;28;20714;-76
2023/12/18 09:51:36;;;;;;;48.25;33.03;;;;;;;20.12;nan;99333.31;5034811;28;20147;-75
2023/12/18 09:54:06;;;;;;;51.38;32.58;;;;;;;20.09;nan;99329.19;5031891;28;20056;-75
2023/12/18 09:56:36;;;;;;;46.75;31.88;;;;;;;20.15;nan;99338.19;5027774;28;20049;-76
2023/12/18 09:59:06;;;;;;;45.40;30.13;;;;;;;20.08;nan;99327.59;5008479;28;20041;-76
2023/12/18 10:01:38;;;;;;;48.15;30.17;;;;;;;20.06;nan;99327.00;5023357;28;20407;-76
2023/12/18 10:04:08;;;;;;;41.08;29.60;;;;;;;20.09;nan;99333.78;5017901;28;20424;-76
2023/12/18 10:06:37;;;;;;;43.38;29.90;;;;;;;20.09;nan;99328.41;5004239;28;20088;-76
2023/12/18 10:09:15;;;;;;;43.88;28.63;;;;;;;20.01;nan;99323.38;5003182;28;20057;-73
2023/12/18 10:11:48;;;;;;;51.85;30.40;;;;;;;20.03;nan;99323.97;5033762;28;20066;-76
2023/12/18 10:14:21;;;;;;;48.05;28.45;;;;;;;20.05;nan;99332.59;5005098;28;20049;-77
2023/12/18 10:16:50;;;;;;;38.25;26.23;;;;;;;19.98;nan;99315.81;5027929;28;20067;-75
2023/12/18 10:19:23;;;;;;;46.30;28.00;;;;;;;19.95;nan;99314.41;5021353;28;20056;-75
2023/12/18 10:21:54;;;;;;;40.70;27.30;;;;;;;19.92;nan;99317.56;5024000;28;20045;-74
2023/12/18 10:24:23;;;;;;;41.03;27.55;;;;;;;19.92;nan;99316.75;5043245;28;20056;-75
2023/12/18 10:26:53;;;;;;;41.75;27.25;;;;;;;19.93;nan;99316.50;5029696;28;20045;-72
2023/12/18 10:29:22;;;;;;;42.30;25.63;;;;;;;19.89;nan;99314.53;5038565;28;20049;-75
2023/12/18 10:31:52;;;;;;;40.97;27.15;;;;;;;19.77;nan;99319.13;5019245;28;20702;-75
2023/12/18 10:34:22;;;;;;;36.40;25.13;;;;;;;19.74;nan;99318.53;5022192;28;20068;-74
2023/12/18 10:36:56;;;;;;;38.53;25.27;;;;;;;19.69;nan;99314.94;5045734;28;20046;-76
2023/12/18 10:39:29;;;;;;;;;;;;;;;19.70;nan;99321.94;5008075;28;20041;-73
2023/12/18 10:42:00;;;;;;;37.35;25.33;;;;;;;19.76;nan;99317.50;5019257;28;19925;-74
2023/12/18 10:44:32;;;;;;;44.35;25.85;;;;;;;19.68;nan;99316.81;5023426;28;20397;-71
2023/12/18 10:47:04;;;;;;;42.72;27.38;;;;;;;19.53;nan;99316.47;5027515;28;20057;-72
2023/12/18 10:49:37;;;;;;;48.03;26.98;;;;;;;19.55;nan;99316.25;5013081;28;20161;-76
2023/12/18 10:52:08;;;;;;;48.05;27.77;;;;;;;19.47;nan;99314.72;5021769;28;20050;-78
2023/12/18 10:54:40;;;;;;;46.85;27.80;;;;;;;19.48;nan;99318.22;5016392;28;20131;-77
2023/12/18 10:57:11;;;;;;;39.50;26.13;;;;;;;19.47;nan;99317.41;5024977;28;20045;-74
2023/12/18 10:59:41;;;;;;;44.45;25.35;;;;;;;19.47;nan;99313.91;5027488;28;20049;-73
2023/12/18 11:02:12;;;;;;;36.20;25.08;;;;;;;19.46;nan;99301.53;5025162;28;20053;-75
2023/12/18 11:04:48;;;;;;;43.58;25.65;;;;;;;19.46;nan;99312.28;5026133;28;20046;-76
2023/12/18 11:07:21;;;;;;;42.15;24.55;;;;;;;19.38;nan;99309.91;5025649;28;20809;-77
2023/12/18 11:09:52;;;;;;;42.03;25.02;;;;;;;19.21;nan;99307.09;5025753;28;20062;-74
2023/12/18 11:12:24;;;;;;;39.42;24.35;;;;;;;19.14;nan;99303.72;5026904;28;20049;-77
2023/12/18 11:15:35;;;;;;;36.10;24.15;;;;;;;19.11;nan;99304.19;5025403;28;20065;-76
2023/12/18 11:18:25;;;;;;;39.80;24.38;;;;;;;19.03;nan;99299.97;5025389;28;20481;-74
2023/12/18 11:20:57;;;;;;;38.53;25.13;;;;;;;19.02;nan;99301.03;5001519;28;20083;-74
2023/12/18 11:23:27;;;;;;;44.38;26.02;;;;;;;19.01;nan;99295.88;5026763;28;20381;-75
2023/12/18 11:26:03;;;;;;;38.97;25.23;;;;;;;19.00;nan;99294.25;5026842;28;20083;-72
2023/12/18 11:28:33;;;;;;;52.15;27.70;;;;;;;18.85;nan;99290.13;5027570;28;20781;-72
2023/12/18 11:31:05;;;;;;;55.95;26.92;;;;;;;18.78;nan;99292.13;5026484;28;20068;-73
2023/12/18 11:33:35;;;;;;;42.43;27.57;;;;;;;18.67;nan;99292.94;5022476;28;20659;-75
2023/12/18 11:36:12;;;;;;;45.30;27.63;;;;;;;18.54;nan;99297.69;5022448;28;20046;-75
2023/12/18 11:38:42;;;;;;;48.10;26.95;;;;;;;18.45;nan;99294.47;5023897;28;20136;-69
2023/12/18 11:41:40;;;;;;;43.80;28.33;;;;;;;18.31;nan;99287.66;5019150;28;20794;-69